Time;durP1;ratioP1;P1;durP2;ratioP2;P2;SDS_P1;SDS_P2;PMS_P1;PMS_P2;Temp;Humidity;BMP_temperature;BMP_pressure;BME280_temperature;BME280_humidity;BME280_pressure;Samples;Min_cycle;Max_cycle;Signal;HPM_P1;HPM_P2
2023/01/12 00:01:33;;;;;;;0.00;0.00;;;7.70;99.90;;;;;;5064296;28;20210;-81
2023/01/12 00:03:59;;;;;;;0.10;0.10;;;7.80;99.90;;;;;;5063408;28;20269;-80
2023/01/12 00:06:25;;;;;;;0.10;0.10;;;7.80;99.90;;;;;;5062071;28;20230;-81
2023/01/12 00:08:51;;;;;;;0.10;0.10;;;7.90;99.90;;;;;;5063297;28;20192;-81
2023/01/12 00:11:17;;;;;;;0.10;0.10;;;7.90;99.90;;;;;;5062111;28;20195;-80
2023/01/12 00:13:44;;;;;;;0.00;0.00;;;8.00;99.90;;;;;;5063197;28;20195;-80
2023/01/12 00:16:33;;;;;;;0.10;0.10;;;8.10;99.90;;;;;;5063375;28;20591;-80
2023/01/12 00:19:00;;;;;;;0.10;0.10;;;8.10;99.90;;;;;;5061281;28;20188;-81
2023/01/12 00:21:25;;;;;;;0.00;0.00;;;8.20;99.90;;;;;;5064213;28;20212;-81
2023/01/12 00:23:51;;;;;;;0.10;0.10;;;8.30;99.90;;;;;;5066870;28;20236;-80
2023/01/12 00:26:16;;;;;;;0.10;0.10;;;8.30;99.90;;;;;;5061382;28;20216;-80
2023/01/12 00:28:42;;;;;;;0.10;0.10;;;8.30;99.90;;;;;;5063875;28;20214;-80
2023/01/12 00:31:09;;;;;;;0.10;0.10;;;8.40;99.90;;;;;;5065531;28;20556;-80
2023/01/12 00:33:36;;;;;;;0.10;0.10;;;8.40;99.90;;;;;;5063908;28;20290;-81
2023/01/12 00:36:08;;;;;;;0.03;0.03;;;8.50;99.90;;;;;;5063965;28;20211;-80
2023/01/12 00:38:35;;;;;;;0.10;0.10;;;8.50;99.90;;;;;;5063563;28;20280;-80
2023/01/12 00:46:48;;;;;;;0.10;0.10;;;8.60;99.90;;;;;;5066572;28;20213;-80
2023/01/12 00:49:14;;;;;;;0.10;0.10;;;8.60;99.90;;;;;;5067153;28;20187;-80
2023/01/12 00:51:39;;;;;;;0.10;0.10;;;8.70;99.90;;;;;;5067182;28;20192;-80
2023/01/12 00:54:07;;;;;;;0.10;0.10;;;8.70;99.90;;;;;;5067702;28;20290;-81
2023/01/12 00:56:33;;;;;;;0.10;0.10;;;8.70;99.90;;;;;;5066176;28;20212;-80
2023/01/12 00:58:59;;;;;;;0.10;0.10;;;8.70;99.90;;;;;;5068016;28;20230;-80
2023/01/12 01:01:24;;;;;;;0.10;0.10;;;8.70;99.90;;;;;;5069872;28;20245;-80
2023/01/12 01:03:50;;;;;;;0.10;0.10;;;8.70;99.90;;;;;;5066234;28;20190;-81
2023/01/12 01:06:16;;;;;;;0.10;0.10;;;8.70;99.90;;;;;;5067125;28;20233;-80
2023/01/12 01:08:41;;;;;;;0.00;0.00;;;8.80;99.90;;;;;;5066805;28;20617;-80
2023/01/12 01:11:10;;;;;;;0.10;0.10;;;8.80;99.90;;;;;;5068674;28;20195;-80
2023/01/12 01:13:36;;;;;;;0.10;0.10;;;8.80;99.90;;;;;;5067688;28;20249;-80
2023/01/12 01:16:04;;;;;;;0.10;0.10;;;8.80;99.90;;;;;;5069136;28;20211;-80
2023/01/12 01:18:30;;;;;;;0.10;0.10;;;8.80;99.90;;;;;;5067507;28;20293;-80
2023/01/12 01:20:56;;;;;;;0.10;0.10;;;8.80;99.90;;;;;;5066693;28;20182;-80
2023/01/12 01:23:24;;;;;;;0.10;0.10;;;8.90;99.90;;;;;;5066880;28;20202;-80
2023/01/12 01:25:49;;;;;;;0.10;0.10;;;8.90;99.90;;;;;;5066848;28;20211;-80
2023/01/12 01:28:16;;;;;;;0.10;0.10;;;8.90;99.90;;;;;;5068305;28;20815;-80
2023/01/12 01:30:42;;;;;;;0.10;0.10;;;9.00;99.90;;;;;;5066318;28;20187;-80
2023/01/12 01:33:07;;;;;;;0.10;0.10;;;8.90;99.90;;;;;;5065216;28;20184;-80
2023/01/12 01:35:35;;;;;;;0.10;0.10;;;9.00;99.90;;;;;;5066337;28;20210;-80
2023/01/12 01:38:00;;;;;;;0.10;0.10;;;9.00;99.90;;;;;;5065896;28;20192;-80
2023/01/12 01:40:26;;;;;;;0.10;0.10;;;9.00;99.90;;;;;;5067736;28;20482;-80
2023/01/12 01:42:51;;;;;;;0.10;0.10;;;9.00;99.90;;;;;;5065189;28;20218;-80
2023/01/12 01:45:17;;;;;;;0.10;0.10;;;9.00;99.90;;;;;;5067315;28;20207;-80
2023/01/12 01:48:03;;;;;;;0.10;0.10;;;9.10;99.90;;;;;;5065885;28;20702;-80
2023/01/12 01:50:36;;;;;;;0.10;0.10;;;9.00;99.90;;;;;;5066253;28;20670;-81
2023/01/12 01:53:04;;;;;;;0.10;0.10;;;9.00;99.90;;;;;;5066051;28;20183;-81
2023/01/12 01:55:36;;;;;;;0.10;0.10;;;9.00;99.90;;;;;;5068330;28;20208;-80
2023/01/12 01:58:12;;;;;;;0.10;0.10;;;9.00;99.90;;;;;;5066208;28;20195;-80
2023/01/12 02:00:39;;;;;;;0.10;0.10;;;9.10;99.90;;;;;;5064766;28;20217;-80
2023/01/12 02:03:07;;;;;;;0.10;0.10;;;9.10;99.90;;;;;;5068157;28;20264;-80
2023/01/12 02:05:33;;;;;;;0.10;0.10;;;9.10;99.90;;;;;;5065333;28;20252;-80
2023/01/12 02:08:25;;;;;;;0.10;0.10;;;9.10;99.90;;;;;;5065916;28;20181;-80
2023/01/12 02:10:52;;;;;;;0.10;0.10;;;9.00;99.90;;;;;;5052244;28;20195;-80
2023/01/12 02:16:22;;;;;;;0.10;0.10;;;9.10;99.90;;;;;;5069837;28;20214;-80
2023/01/12 02:19:06;;;;;;;0.10;0.10;;;9.10;99.90;;;;;;5066281;28;20213;-80
2023/01/12 02:22:12;;;;;;;0.00;0.00;;;9.10;99.90;;;;;;5063424;28;20313;-80
2023/01/12 02:25:02;;;;;;;0.10;0.10;;;9.00;99.90;;;;;;5065753;28;20200;-81
2023/01/12 02:27:54;;;;;;;0.10;0.10;;;9.00;99.90;;;;;;5065858;28;20195;-80
2023/01/12 02:30:51;;;;;;;0.10;0.10;;;9.00;99.90;;;;;;5064413;28;20184;-80
2023/01/12 02:33:30;;;;;;;0.10;0.10;;;9.00;99.90;;;;;;5065827;28;20660;-80
2023/01/12 02:36:23;;;;;;;0.10;0.10;;;8.90;99.90;;;;;;5063629;28;20296;-80
2023/01/12 02:39:08;;;;;;;0.07;0.07;;;8.90;99.90;;;;;;5064469;28;20182;-80
2023/01/12 02:44:38;;;;;;;0.10;0.10;;;9.00;99.90;;;;;;5067578;28;20185;-80
2023/01/12 02:47:08;;;;;;;0.10;0.10;;;9.00;99.90;;;;;;5065246;28;20184;-80
2023/01/12 02:49:42;;;;;;;0.00;0.00;;;9.00;99.90;;;;;;5065110;28;20218;-80
2023/01/12 02:52:13;;;;;;;0.10;0.10;;;9.10;99.90;;;;;;5061665;28;22047;-80
2023/01/12 02:54:43;;;;;;;0.10;0.10;;;9.10;99.90;;;;;;5061387;28;20373;-80
2023/01/12 02:57:09;;;;;;;0.10;0.10;;;9.10;99.90;;;;;;5065843;28;20220;-80
2023/01/12 02:59:39;;;;;;;0.10;0.10;;;9.10;99.90;;;;;;5062795;28;20673;-79
2023/01/12 03:02:11;;;;;;;0.10;0.10;;;9.10;99.90;;;;;;5063506;28;20213;-80
2023/01/12 03:04:37;;;;;;;0.10;0.10;;;9.10;99.90;;;;;;5063673;28;20283;-80
2023/01/12 03:07:02;;;;;;;0.10;0.10;;;9.10;99.90;;;;;;5062931;28;20259;-80
2023/01/12 03:09:57;;;;;;;0.10;0.10;;;9.10;99.90;;;;;;5064461;28;20183;-81
2023/01/12 03:12:27;;;;;;;0.10;0.10;;;9.10;99.90;;;;;;5064144;28;20231;-80
2023/01/12 03:14:55;;;;;;;0.10;0.10;;;9.10;99.90;;;;;;5062227;28;20229;-80
2023/01/12 03:17:30;;;;;;;0.10;0.10;;;9.10;99.90;;;;;;5064733;28;20276;-80
2023/01/12 03:20:01;;;;;;;0.10;0.10;;;9.10;99.90;;;;;;5065115;28;20182;-80
2023/01/12 03:22:29;;;;;;;0.10;0.10;;;9.10;99.90;;;;;;5063845;28;20269;-80
2023/01/12 03:25:01;;;;;;;0.10;0.10;;;9.20;99.90;;;;;;5063725;28;20775;-80
2023/01/12 03:27:36;;;;;;;0.10;0.10;;;9.20;99.90;;;;;;5064787;28;20232;-80
2023/01/12 03:30:08;;;;;;;0.10;0.10;;;9.20;99.90;;;;;;5063805;28;20665;-80
2023/01/12 03:32:34;;;;;;;0.10;0.10;;;9.20;99.90;;;;;;5073226;28;20211;-80
2023/01/12 03:35:00;;;;;;;0.10;0.10;;;9.20;99.90;;;;;;5061202;28;20218;-80
2023/01/12 03:37:35;;;;;;;0.10;0.10;;;9.20;99.90;;;;;;5063123;28;20277;-80
2023/01/12 03:40:08;;;;;;;0.10;0.10;;;9.30;99.90;;;;;;5062661;28;20330;-80
2023/01/12 03:42:42;;;;;;;0.10;0.10;;;9.20;99.90;;;;;;5065262;28;20248;-80
2023/01/12 03:45:35;;;;;;;0.10;0.10;;;9.20;99.90;;;;;;5061994;28;20199;-80
2023/01/12 03:48:13;;;;;;;0.10;0.10;;;9.30;99.90;;;;;;5064228;28;20175;-80
2023/01/12 03:50:45;;;;;;;0.10;0.10;;;9.30;99.90;;;;;;5063522;28;20187;-80
2023/01/12 03:53:14;;;;;;;0.10;0.10;;;9.30;99.90;;;;;;5065753;28;20178;-80
2023/01/12 03:55:42;;;;;;;0.10;0.10;;;9.30;99.90;;;;;;5063996;28;21077;-80
2023/01/12 03:58:08;;;;;;;0.10;0.10;;;9.30;99.90;;;;;;5063982;28;20633;-81
2023/01/12 04:00:34;;;;;;;0.10;0.10;;;9.30;99.90;;;;;;5065090;28;20189;-80
2023/01/12 04:03:11;;;;;;;0.10;0.10;;;9.20;99.90;;;;;;5065672;28;20196;-80
2023/01/12 04:05:38;;;;;;;0.10;0.10;;;9.30;99.90;;;;;;5063751;28;20598;-81
2023/01/12 04:08:04;;;;;;;0.10;0.10;;;9.30;99.90;;;;;;5063571;28;20179;-80
2023/01/12 04:10:30;;;;;;;0.10;0.10;;;9.30;99.90;;;;;;5063816;28;20175;-80
2023/01/12 04:12:56;;;;;;;0.10;0.10;;;9.20;99.90;;;;;;5064191;28;20597;-80
2023/01/12 04:15:21;;;;;;;0.10;0.10;;;9.20;99.90;;;;;;5062112;28;20218;-80
2023/01/12 04:17:47;;;;;;;0.10;0.10;;;9.20;99.90;;;;;;5064330;28;20190;-80
2023/01/12 04:20:12;;;;;;;0.10;0.10;;;9.20;99.90;;;;;;5063048;28;20207;-80
2023/01/12 04:22:43;;;;;;;0.10;0.10;;;9.20;99.90;;;;;;5063545;28;20235;-80
2023/01/12 04:25:18;;;;;;;0.10;0.10;;;9.20;99.90;;;;;;5064643;28;20227;-79
2023/01/12 04:27:50;;;;;;;0.10;0.10;;;9.20;99.90;;;;;;5072554;28;20725;-80
2023/01/12 04:30:19;;;;;;;0.10;0.10;;;9.10;99.90;;;;;;5066573;28;20683;-80
2023/01/12 04:32:45;;;;;;;0.20;0.20;;;9.10;99.90;;;;;;5063572;28;20193;-81
2023/01/12 04:35:11;;;;;;;0.10;0.10;;;9.10;99.90;;;;;;5064974;28;20233;-81
2023/01/12 04:37:37;;;;;;;0.10;0.10;;;9.10;99.90;;;;;;5061326;28;20285;-80
2023/01/12 04:40:04;;;;;;;0.10;0.10;;;9.10;99.90;;;;;;5064021;28;20201;-80
2023/01/12 04:45:13;;;;;;;0.00;0.00;;;9.20;99.90;;;;;;5065870;28;20555;-80
2023/01/12 04:47:39;;;;;;;0.10;0.10;;;9.10;99.90;;;;;;5065552;28;20175;-80
2023/01/12 04:50:05;;;;;;;0.10;0.10;;;9.10;99.90;;;;;;5063499;28;20188;-81
2023/01/12 04:52:31;;;;;;;0.10;0.10;;;9.20;99.90;;;;;;5061342;28;20186;-81
2023/01/12 04:54:56;;;;;;;0.10;0.10;;;9.20;99.90;;;;;;5063732;28;20210;-80
2023/01/12 04:57:22;;;;;;;0.10;0.10;;;9.20;99.90;;;;;;5062258;28;20193;-79
2023/01/12 04:59:47;;;;;;;0.10;0.10;;;9.20;99.90;;;;;;5062736;28;20943;-80
2023/01/12 05:02:13;;;;;;;0.10;0.10;;;9.20;99.90;;;;;;5065134;28;20305;-80
2023/01/12 05:04:38;;;;;;;0.10;0.10;;;9.20;99.90;;;;;;5062848;28;20184;-80
2023/01/12 05:07:04;;;;;;;0.10;0.10;;;9.20;99.90;;;;;;5063403;28;20237;-81
2023/01/12 05:12:13;;;;;;;0.07;0.07;;;9.20;99.90;;;;;;5067459;28;20192;-80
2023/01/12 05:14:39;;;;;;;0.10;0.10;;;9.20;99.90;;;;;;5063911;28;20191;-80
2023/01/12 05:17:04;;;;;;;0.00;0.00;;;9.20;99.90;;;;;;5063550;28;20244;-80
2023/01/12 05:19:30;;;;;;;0.10;0.10;;;9.20;99.90;;;;;;5064566;28;20297;-80
2023/01/12 05:21:55;;;;;;;0.10;0.10;;;9.20;99.90;;;;;;5062668;28;20206;-80
2023/01/12 05:24:21;;;;;;;0.17;0.17;;;9.20;99.90;;;;;;5064443;28;20191;-80
2023/01/12 05:26:46;;;;;;;0.10;0.10;;;9.20;99.90;;;;;;5064184;28;20234;-80
2023/01/12 05:29:12;;;;;;;0.10;0.10;;;9.30;99.90;;;;;;5065102;28;20247;-80
2023/01/12 05:31:38;;;;;;;0.10;0.10;;;9.30;99.90;;;;;;5064168;28;20721;-79
2023/01/12 05:34:03;;;;;;;0.10;0.10;;;9.30;99.90;;;;;;5066717;28;20813;-80
2023/01/12 05:36:29;;;;;;;0.03;0.03;;;9.30;99.90;;;;;;5065920;28;20289;-81
2023/01/12 05:38:54;;;;;;;0.10;0.10;;;9.40;99.90;;;;;;5067071;28;20219;-80
2023/01/12 05:41:21;;;;;;;0.10;0.10;;;9.40;99.90;;;;;;5067354;28;20248;-80
2023/01/12 05:43:50;;;;;;;0.10;0.10;;;9.40;99.90;;;;;;5067657;28;20219;-81
2023/01/12 05:46:22;;;;;;;0.10;0.10;;;9.40;99.90;;;;;;5064097;28;20290;-81
2023/01/12 05:48:49;;;;;;;0.10;0.10;;;9.40;99.90;;;;;;5068356;28;20200;-80
2023/01/12 05:51:15;;;;;;;0.07;0.07;;;9.40;99.90;;;;;;5068303;28;20254;-80
2023/01/12 05:53:41;;;;;;;0.10;0.10;;;9.50;99.90;;;;;;5065576;28;20249;-80
2023/01/12 05:56:09;;;;;;;0.10;0.10;;;9.50;99.90;;;;;;5065598;28;20653;-80
2023/01/12 05:58:34;;;;;;;0.10;0.10;;;9.50;99.90;;;;;;5064904;28;20688;-80
2023/01/12 06:01:00;;;;;;;0.10;0.10;;;9.50;99.90;;;;;;5067007;28;20184;-80
2023/01/12 06:03:26;;;;;;;0.10;0.10;;;9.50;99.90;;;;;;5067193;28;20220;-80
2023/01/12 06:05:53;;;;;;;0.10;0.10;;;9.50;99.90;;;;;;5074814;28;20203;-80
2023/01/12 06:08:18;;;;;;;0.10;0.10;;;9.50;99.90;;;;;;5063728;28;20194;-80
2023/01/12 06:10:44;;;;;;;0.10;0.10;;;9.50;99.90;;;;;;5065998;28;20184;-81
2023/01/12 06:16:04;;;;;;;0.10;0.10;;;9.60;99.90;;;;;;5061202;28;20235;-80
2023/01/12 06:18:39;;;;;;;0.10;0.10;;;9.50;99.90;;;;;;5060511;28;20262;-80
2023/01/12 06:21:06;;;;;;;0.10;0.10;;;9.50;99.90;;;;;;5064874;28;20184;-81
2023/01/12 06:23:32;;;;;;;0.10;0.10;;;9.50;99.90;;;;;;5063719;28;20306;-81
2023/01/12 06:26:03;;;;;;;0.10;0.10;;;9.50;99.90;;;;;;5065046;28;20204;-81
2023/01/12 06:28:28;;;;;;;0.10;0.10;;;9.50;99.90;;;;;;5061455;28;20185;-81
2023/01/12 06:30:59;;;;;;;0.10;0.10;;;9.50;99.90;;;;;;5059411;28;20188;-80
2023/01/12 06:33:25;;;;;;;0.10;0.10;;;9.50;99.90;;;;;;5062637;28;20249;-81
2023/01/12 06:35:52;;;;;;;0.10;0.10;;;9.50;99.90;;;;;;5058862;28;20208;-80
2023/01/12 06:38:18;;;;;;;0.10;0.10;;;9.50;99.90;;;;;;5063989;28;20191;-80
2023/01/12 06:40:43;;;;;;;0.10;0.10;;;9.50;99.90;;;;;;5061949;28;20635;-80
2023/01/12 06:43:09;;;;;;;0.10;0.10;;;9.50;99.90;;;;;;5060534;28;20290;-79
2023/01/12 06:45:34;;;;;;;0.10;0.10;;;9.40;99.90;;;;;;5063697;28;20214;-80
2023/01/12 06:48:00;;;;;;;0.10;0.10;;;9.40;99.90;;;;;;5067769;28;20704;-80
2023/01/12 06:50:25;;;;;;;0.10;0.10;;;9.40;99.90;;;;;;5064966;28;20185;-80
2023/01/12 06:52:51;;;;;;;0.10;0.10;;;9.40;99.90;;;;;;5066043;28;20199;-80
2023/01/12 06:55:17;;;;;;;0.03;0.03;;;9.40;99.90;;;;;;5065046;28;20621;-81
2023/01/12 06:57:43;;;;;;;0.10;0.10;;;9.40;99.90;;;;;;5061236;28;20191;-80
2023/01/12 07:00:12;;;;;;;0.10;0.10;;;9.40;99.90;;;;;;5065010;28;20191;-80
2023/01/12 07:02:38;;;;;;;0.10;0.10;;;9.30;99.90;;;;;;5063558;28;20215;-80
2023/01/12 07:05:04;;;;;;;0.10;0.10;;;9.40;99.90;;;;;;5064580;28;20204;-80
2023/01/12 07:07:30;;;;;;;0.10;0.10;;;9.30;99.90;;;;;;5066517;28;20184;-81
2023/01/12 07:09:55;;;;;;;0.10;0.10;;;9.30;99.90;;;;;;5064612;28;20177;-80
2023/01/12 07:12:21;;;;;;;0.10;0.10;;;9.40;99.90;;;;;;5059755;28;20215;-80
2023/01/12 07:14:46;;;;;;;0.10;0.10;;;9.30;99.90;;;;;;5064453;28;20288;-81
2023/01/12 07:17:12;;;;;;;0.10;0.10;;;9.30;99.90;;;;;;5066928;28;20255;-81
2023/01/12 07:19:38;;;;;;;0.10;0.10;;;9.30;99.90;;;;;;5066084;28;20192;-81
2023/01/12 07:22:04;;;;;;;0.10;0.10;;;9.30;99.90;;;;;;5065135;28;20211;-80
2023/01/12 07:24:29;;;;;;;0.10;0.10;;;9.20;99.90;;;;;;5058893;28;20173;-80
2023/01/12 07:26:57;;;;;;;0.10;0.10;;;9.10;99.90;;;;;;5050397;28;20299;-82
2023/01/12 07:29:23;;;;;;;0.10;0.10;;;9.20;99.90;;;;;;5053289;28;20184;-81
2023/01/12 07:31:48;;;;;;;0.10;0.10;;;9.10;99.90;;;;;;5054201;28;20218;-81
2023/01/12 07:34:14;;;;;;;0.10;0.10;;;9.10;99.90;;;;;;5061142;28;20175;-82
2023/01/12 07:36:41;;;;;;;0.07;0.07;;;9.10;99.90;;;;;;5058132;28;20208;-82
2023/01/12 07:39:07;;;;;;;0.10;0.10;;;9.00;99.90;;;;;;5060969;28;20624;-81
2023/01/12 07:44:18;;;;;;;0.10;0.10;;;8.90;99.90;;;;;;5063079;28;20232;-81
2023/01/12 07:46:43;;;;;;;0.10;0.10;;;8.90;99.90;;;;;;5061779;28;20699;-81
2023/01/12 07:49:09;;;;;;;0.07;0.07;;;8.90;99.90;;;;;;5060284;28;21091;-82
2023/01/12 07:51:35;;;;;;;0.10;0.10;;;8.90;99.90;;;;;;5060481;28;20196;-82
2023/01/12 07:54:00;;;;;;;0.10;0.10;;;8.90;99.90;;;;;;5054493;28;20307;-82
2023/01/12 07:56:26;;;;;;;0.10;0.10;;;8.90;99.90;;;;;;5053784;28;20233;-81
2023/01/12 07:58:51;;;;;;;0.10;0.10;;;8.90;99.90;;;;;;5057177;28;20209;-80
2023/01/12 08:01:17;;;;;;;0.10;0.10;;;8.90;99.90;;;;;;5057364;28;20215;-84
2023/01/12 08:03:43;;;;;;;0.10;0.10;;;8.90;99.90;;;;;;5056377;28;20197;-84
2023/01/12 08:06:08;;;;;;;0.10;0.10;;;9.00;99.90;;;;;;5057385;28;20797;-81
2023/01/12 08:08:34;;;;;;;0.10;0.10;;;9.00;99.90;;;;;;5056407;28;20190;-80
2023/01/12 08:11:06;;;;;;;0.10;0.10;;;8.90;99.90;;;;;;5056945;28;20179;-80
2023/01/12 08:13:32;;;;;;;0.10;0.10;;;9.00;99.90;;;;;;5060252;28;20176;-81
2023/01/12 08:16:05;;;;;;;0.10;0.10;;;8.90;99.90;;;;;;5056570;28;20207;-81
2023/01/12 08:18:36;;;;;;;0.10;0.10;;;8.90;99.90;;;;;;5058252;28;20191;-81
2023/01/12 08:21:07;;;;;;;0.10;0.10;;;8.90;99.90;;;;;;5059442;28;20258;-80
2023/01/12 08:23:39;;;;;;;0.10;0.10;;;8.90;99.90;;;;;;5056408;28;20199;-81
2023/01/12 08:26:11;;;;;;;0.10;0.10;;;8.90;99.90;;;;;;5060514;28;21020;-81
2023/01/12 08:28:42;;;;;;;0.10;0.10;;;8.90;99.90;;;;;;5057312;28;20202;-81
2023/01/12 08:31:10;;;;;;;0.10;0.10;;;9.00;99.90;;;;;;5057800;28;20172;-82
2023/01/12 08:33:36;;;;;;;0.10;0.10;;;9.00;99.90;;;;;;5061490;28;20242;-81
2023/01/12 08:36:03;;;;;;;0.10;0.10;;;9.00;99.90;;;;;;5057687;28;20208;-81
2023/01/12 08:38:29;;;;;;;0.10;0.10;;;9.10;99.90;;;;;;5059121;28;20301;-81
2023/01/12 08:46:23;;;;;;;0.10;0.10;;;9.10;99.90;;;;;;5059795;28;20264;-81
2023/01/12 08:48:49;;;;;;;0.10;0.10;;;9.10;99.90;;;;;;5062335;28;20613;-80
2023/01/12 08:51:14;;;;;;;0.10;0.10;;;9.20;99.90;;;;;;5048301;28;20191;-81
2023/01/12 08:53:40;;;;;;;0.10;0.10;;;9.10;99.90;;;;;;5058909;28;20624;-80
2023/01/12 08:56:06;;;;;;;0.10;0.10;;;9.20;99.90;;;;;;5060868;28;20244;-81
2023/01/12 08:58:31;;;;;;;0.00;0.00;;;9.20;99.90;;;;;;5054781;28;20602;-80
2023/01/12 09:01:04;;;;;;;0.10;0.10;;;9.30;99.90;;;;;;5054155;28;20182;-80
2023/01/12 09:03:29;;;;;;;0.10;0.10;;;9.30;99.90;;;;;;5058647;28;20275;-80
2023/01/12 09:05:55;;;;;;;0.10;0.10;;;9.30;99.90;;;;;;5059872;28;20269;-80
2023/01/12 09:08:20;;;;;;;0.10;0.10;;;9.30;99.90;;;;;;5063142;28;20649;-80
2023/01/12 09:10:46;;;;;;;0.10;0.10;;;9.30;99.90;;;;;;5063490;28;20205;-80
2023/01/12 09:13:14;;;;;;;0.10;0.10;;;9.30;99.90;;;;;;5058473;28;20199;-82
2023/01/12 09:15:40;;;;;;;0.10;0.10;;;9.30;99.90;;;;;;5065863;28;20654;-82
2023/01/12 09:18:05;;;;;;;0.10;0.10;;;9.30;99.90;;;;;;5065222;28;20194;-81
2023/01/12 09:20:33;;;;;;;0.10;0.10;;;9.30;99.90;;;;;;5063634;28;20184;-81
2023/01/12 09:23:01;;;;;;;0.10;0.10;;;9.30;99.90;;;;;;5064504;28;20215;-81
2023/01/12 09:25:27;;;;;;;0.10;0.10;;;9.40;99.90;;;;;;5065882;28;20294;-81
2023/01/12 09:27:52;;;;;;;0.10;0.10;;;9.40;99.90;;;;;;5062170;28;20333;-81
2023/01/12 09:30:18;;;;;;;0.10;0.10;;;9.40;99.90;;;;;;5061691;28;20188;-81
2023/01/12 09:32:43;;;;;;;0.10;0.10;;;9.50;99.90;;;;;;5065117;28;20232;-81
2023/01/12 09:35:09;;;;;;;0.10;0.10;;;9.50;99.90;;;;;;5063099;28;20355;-80
2023/01/12 09:37:34;;;;;;;0.10;0.10;;;9.50;99.90;;;;;;5064140;28;20299;-80
2023/01/12 09:40:00;;;;;;;0.10;0.10;;;9.60;99.90;;;;;;5060506;28;20193;-81
2023/01/12 09:48:05;;;;;;;0.10;0.10;;;9.70;99.90;;;;;;5065636;28;20251;-80
2023/01/12 09:50:35;;;;;;;0.10;0.10;;;9.70;99.90;;;;;;5070499;28;20193;-80
2023/01/12 09:53:06;;;;;;;0.10;0.10;;;9.70;99.90;;;;;;5062558;28;20386;-80
2023/01/12 09:55:58;;;;;;;0.10;0.10;;;9.70;99.90;;;;;;5065128;28;20218;-81
2023/01/12 09:58:28;;;;;;;0.10;0.10;;;9.70;99.90;;;;;;5063524;28;20307;-81
2023/01/12 10:00:56;;;;;;;0.10;0.10;;;9.70;99.90;;;;;;5061815;28;20283;-81
2023/01/12 10:03:34;;;;;;;0.10;0.10;;;9.80;99.90;;;;;;5065632;28;20218;-81
2023/01/12 10:06:00;;;;;;;0.10;0.10;;;9.80;99.90;;;;;;5063638;28;20205;-80
2023/01/12 10:08:41;;;;;;;0.10;0.10;;;9.80;99.90;;;;;;5061059;28;20176;-81
2023/01/12 10:11:22;;;;;;;0.10;0.10;;;9.80;99.90;;;;;;5060306;28;20610;-81
2023/01/12 10:14:16;;;;;;;0.10;0.10;;;9.90;99.90;;;;;;5057706;28;20244;-81
2023/01/12 10:17:15;;;;;;;0.10;0.10;;;9.90;99.90;;;;;;5063767;28;20345;-80
2023/01/12 10:20:10;;;;;;;0.10;0.10;;;10.00;99.90;;;;;;5060414;28;20259;-81
2023/01/12 10:22:53;;;;;;;0.10;0.10;;;10.00;99.90;;;;;;5061989;28;20302;-80
2023/01/12 10:25:44;;;;;;;0.10;0.10;;;10.00;99.90;;;;;;5063361;28;20681;-81
2023/01/12 10:28:15;;;;;;;0.10;0.10;;;10.00;99.90;;;;;;5063276;28;20189;-80
2023/01/12 10:30:41;;;;;;;0.10;0.10;;;10.00;99.90;;;;;;5057343;28;20226;-81
2023/01/12 10:33:18;;;;;;;0.10;0.10;;;10.10;99.90;;;;;;5061969;28;20776;-80
2023/01/12 10:36:02;;;;;;;0.10;0.10;;;10.10;99.90;;;;;;5059913;28;20208;-80
2023/01/12 10:38:37;;;;;;;0.10;0.10;;;10.10;99.90;;;;;;5060359;28;20192;-81
2023/01/12 10:41:11;;;;;;;0.10;0.10;;;10.10;99.90;;;;;;5060704;28;20178;-80
2023/01/12 10:43:39;;;;;;;0.10;0.10;;;10.10;99.90;;;;;;5060516;28;20565;-80
2023/01/12 10:46:09;;;;;;;0.10;0.10;;;10.20;99.90;;;;;;5061482;28;20212;-81
2023/01/12 10:48:37;;;;;;;0.10;0.10;;;10.20;99.90;;;;;;5059440;28;20194;-81
2023/01/12 10:51:06;;;;;;;0.00;0.00;;;10.20;99.90;;;;;;5056153;28;21911;-83
2023/01/12 10:53:36;;;;;;;0.10;0.10;;;10.20;99.90;;;;;;5058361;28;20295;-82
2023/01/12 10:56:12;;;;;;;0.10;0.10;;;10.20;99.90;;;;;;5060884;28;20254;-81
2023/01/12 10:58:38;;;;;;;0.10;0.10;;;10.10;99.90;;;;;;5062821;28;20954;-81
2023/01/12 11:01:05;;;;;;;0.10;0.10;;;10.10;99.90;;;;;;5055779;28;20244;-81
2023/01/12 11:03:36;;;;;;;0.10;0.10;;;10.10;99.90;;;;;;5071480;28;20212;-82
2023/01/12 11:06:20;;;;;;;0.10;0.10;;;10.10;99.90;;;;;;5057034;28;20247;-81
2023/01/12 11:08:46;;;;;;;0.10;0.10;;;10.10;99.90;;;;;;5063034;28;20207;-81
2023/01/12 11:11:32;;;;;;;0.10;0.10;;;10.10;99.90;;;;;;5060490;28;20180;-81
2023/01/12 11:14:03;;;;;;;0.10;0.10;;;10.10;99.90;;;;;;5060309;28;20185;-81
2023/01/12 11:16:37;;;;;;;0.10;0.10;;;10.00;99.90;;;;;;5071088;28;20210;-80
2023/01/12 11:19:28;;;;;;;0.10;0.10;;;10.10;99.90;;;;;;5062737;28;20566;-81
2023/01/12 11:22:05;;;;;;;0.10;0.10;;;10.00;99.90;;;;;;5061082;28;20215;-81
2023/01/12 11:24:48;;;;;;;0.00;0.00;;;10.10;99.90;;;;;;5060549;28;20172;-80
2023/01/12 11:27:29;;;;;;;0.10;0.10;;;10.10;99.90;;;;;;5058399;28;20182;-80
2023/01/12 11:30:25;;;;;;;0.10;0.10;;;10.10;99.90;;;;;;5053932;28;20207;-81
2023/01/12 11:32:53;;;;;;;0.10;0.10;;;10.10;99.90;;;;;;5058600;28;20207;-81
2023/01/12 11:35:35;;;;;;;0.10;0.10;;;10.10;99.90;;;;;;5061122;28;20226;-81
2023/01/12 11:38:10;;;;;;;0.10;0.10;;;10.20;99.90;;;;;;5061536;28;20185;-81
2023/01/12 11:40:37;;;;;;;0.03;0.03;;;10.20;99.90;;;;;;5059195;28;20657;-81
2023/01/12 11:46:28;;;;;;;0.10;0.10;;;10.20;99.90;;;;;;5060763;28;21150;-80
2023/01/12 11:49:00;;;;;;;0.10;0.10;;;10.20;99.90;;;;;;5062142;28;20204;-81
2023/01/12 11:51:25;;;;;;;0.10;0.10;;;10.20;99.90;;;;;;5060529;28;20184;-81
2023/01/12 11:53:51;;;;;;;0.10;0.10;;;10.30;99.90;;;;;;5060826;28;20234;-81
2023/01/12 11:56:46;;;;;;;0.10;0.10;;;10.30;99.90;;;;;;5059733;28;20212;-80
2023/01/12 11:59:19;;;;;;;0.10;0.10;;;10.30;99.90;;;;;;5062100;28;20237;-81
2023/01/12 12:01:57;;;;;;;0.10;0.10;;;10.30;99.90;;;;;;5062872;28;20208;-81
2023/01/12 12:04:45;;;;;;;0.10;0.10;;;10.30;99.90;;;;;;5059860;28;20597;-80
2023/01/12 12:07:40;;;;;;;0.10;0.10;;;10.30;99.90;;;;;;5056383;28;20312;-81
2023/01/12 12:10:36;;;;;;;0.10;0.10;;;10.30;99.90;;;;;;5058303;28;20199;-81
2023/01/12 12:13:25;;;;;;;0.10;0.10;;;10.20;99.90;;;;;;5062454;28;20207;-81
2023/01/12 12:16:14;;;;;;;0.10;0.10;;;10.20;99.90;;;;;;5061662;28;20208;-81
2023/01/12 12:19:17;;;;;;;0.10;0.10;;;10.10;99.90;;;;;;5061722;28;20259;-81
2023/01/12 12:21:45;;;;;;;0.10;0.10;;;10.10;99.90;;;;;;5060755;28;20201;-81
2023/01/12 12:24:36;;;;;;;0.10;0.10;;;10.10;99.90;;;;;;5062602;28;20204;-81
2023/01/12 12:27:27;;;;;;;0.10;0.10;;;10.10;99.90;;;;;;5062346;28;20670;-81
2023/01/12 12:30:07;;;;;;;0.10;0.10;;;10.10;99.90;;;;;;5061518;28;20211;-81
2023/01/12 12:32:59;;;;;;;0.10;0.10;;;10.00;99.90;;;;;;5061958;28;20192;-81
2023/01/12 12:35:33;;;;;;;0.10;0.10;;;10.00;99.90;;;;;;5060161;28;20281;-81
2023/01/12 12:38:19;;;;;;;0.10;0.10;;;10.10;99.90;;;;;;5064016;28;20200;-81
2023/01/12 12:47:09;;;;;;;0.10;0.10;;;10.10;99.90;;;;;;5065766;28;20781;-81
2023/01/12 12:49:37;;;;;;;0.10;0.10;;;10.10;99.90;;;;;;5065539;28;20348;-80
2023/01/12 12:52:03;;;;;;;0.10;0.10;;;10.20;99.90;;;;;;5065501;28;20188;-81
2023/01/12 12:54:30;;;;;;;0.10;0.10;;;10.20;99.90;;;;;;5065892;28;20199;-81
2023/01/12 12:56:56;;;;;;;0.10;0.10;;;10.20;99.90;;;;;;5065591;28;20652;-80
2023/01/12 12:59:55;;;;;;;0.03;0.03;;;10.20;99.90;;;;;;5066698;28;20292;-81
2023/01/12 13:02:39;;;;;;;0.10;0.10;;;10.30;99.90;;;;;;5066853;28;20204;-80
2023/01/12 13:05:07;;;;;;;0.10;0.10;;;10.30;99.90;;;;;;5063820;28;20743;-81
2023/01/12 13:07:36;;;;;;;0.07;0.07;;;10.40;99.90;;;;;;5066581;28;20874;-80
2023/01/12 13:10:22;;;;;;;0.10;0.10;;;10.30;99.90;;;;;;5075450;28;20222;-80
2023/01/12 13:13:03;;;;;;;0.10;0.10;;;10.40;99.90;;;;;;5064470;28;20203;-81
2023/01/12 13:15:35;;;;;;;0.10;0.10;;;10.40;99.90;;;;;;5065442;28;20210;-80
2023/01/12 13:18:02;;;;;;;0.10;0.10;;;10.40;99.90;;;;;;5065229;28;20201;-81
2023/01/12 13:20:37;;;;;;;0.10;0.10;;;10.50;99.90;;;;;;5065151;28;20220;-81
2023/01/12 13:23:23;;;;;;;0.10;0.10;;;10.50;99.90;;;;;;5065120;28;20314;-81
2023/01/12 13:25:55;;;;;;;0.10;0.10;;;10.50;99.90;;;;;;5064161;28;20229;-81
2023/01/12 13:28:20;;;;;;;0.10;0.10;;;10.50;99.90;;;;;;5065224;28;20675;-81
2023/01/12 13:30:54;;;;;;;0.10;0.10;;;10.60;99.90;;;;;;5065303;28;20250;-80
2023/01/12 13:33:27;;;;;;;0.10;0.10;;;10.60;99.90;;;;;;5065217;28;21240;-81
2023/01/12 13:35:52;;;;;;;0.10;0.10;;;10.60;99.90;;;;;;5066804;28;20212;-80
2023/01/12 13:38:37;;;;;;;0.10;0.10;;;10.60;99.90;;;;;;5066335;28;20194;-81
2023/01/12 13:41:12;;;;;;;0.10;0.10;;;10.60;99.90;;;;;;5066924;28;20188;-81
2023/01/12 13:43:44;;;;;;;0.10;0.10;;;10.70;99.90;;;;;;5066683;28;20212;-81
2023/01/12 13:46:17;;;;;;;0.10;0.10;;;10.70;99.90;;;;;;5066074;28;20203;-80
2023/01/12 13:48:51;;;;;;;0.10;0.10;;;10.70;99.90;;;;;;5065111;28;20697;-81
2023/01/12 13:51:27;;;;;;;0.10;0.10;;;10.70;99.90;;;;;;5067227;28;20173;-80
2023/01/12 13:53:58;;;;;;;4.63;4.47;;;10.70;99.90;;;;;;5061648;28;20192;-81
2023/01/12 13:56:24;;;;;;;0.10;0.10;;;10.70;99.90;;;;;;5064896;28;20197;-80
2023/01/12 13:58:56;;;;;;;0.10;0.10;;;10.70;99.90;;;;;;5064020;28;20603;-80